createdAt,value
2018-09-27T00:00:32.971Z,13.30
2018-09-27T00:03:01.553Z,13.20
2018-09-27T00:05:30.070Z,13.10
2018-09-27T00:07:59.376Z,13.00
2018-09-27T00:10:27.879Z,13.00
2018-09-27T00:12:57.005Z,12.90
2018-09-27T00:15:25.734Z,12.80
2018-09-27T00:17:54.243Z,12.70
2018-09-27T00:20:22.856Z,12.70
2018-09-27T00:22:51.368Z,12.70
2018-09-27T00:25:20.043Z,12.70
2018-09-27T00:27:48.538Z,12.70
2018-09-27T00:30:17.180Z,12.70
2018-09-27T00:32:45.884Z,12.70
2018-09-27T00:35:14.433Z,12.70
2018-09-27T00:37:43.035Z,12.60
2018-09-27T00:40:11.546Z,12.60
2018-09-27T00:42:40.213Z,12.60
2018-09-27T00:45:08.780Z,12.50
2018-09-27T00:47:37.438Z,12.50
2018-09-27T00:50:07.013Z,12.50
2018-09-27T00:52:35.438Z,12.40
2018-09-27T00:55:04.611Z,12.30
2018-09-27T00:57:33.253Z,12.20
2018-09-27T01:00:01.658Z,12.20
2018-09-27T01:02:30.047Z,12.20
2018-09-27T01:04:59.076Z,12.10
2018-09-27T01:07:28.293Z,12.10
2018-09-27T01:09:56.981Z,12.00
2018-09-27T01:12:25.398Z,12.00
2018-09-27T01:14:53.836Z,12.00
2018-09-27T01:17:22.200Z,11.90
2018-09-27T01:19:50.638Z,11.90
2018-09-27T01:22:19.109Z,11.90
2018-09-27T01:24:48.172Z,11.80
2018-09-27T01:27:16.583Z,11.80
2018-09-27T01:29:44.986Z,11.80
2018-09-27T01:32:13.784Z,11.70
2018-09-27T01:34:43.122Z,11.70
2018-09-27T01:37:12.159Z,11.80
2018-09-27T01:39:40.621Z,11.70
2018-09-27T01:42:09.036Z,11.70
2018-09-27T01:44:37.468Z,11.70
2018-09-27T01:47:05.930Z,11.70
2018-09-27T01:49:34.892Z,11.70
2018-09-27T01:52:03.445Z,11.70
2018-09-27T01:54:31.839Z,11.80
2018-09-27T01:57:00.268Z,11.90
2018-09-27T01:59:29.244Z,12.00
2018-09-27T02:01:57.661Z,12.10
2018-09-27T02:04:26.198Z,12.10
2018-09-27T02:06:54.620Z,12.10
2018-09-27T02:09:23.019Z,12.10
2018-09-27T02:11:51.557Z,12.10
2018-09-27T02:14:20.105Z,12.10
2018-09-27T02:16:48.834Z,12.10
2018-09-27T02:19:18.231Z,12.10
2018-09-27T02:21:46.997Z,12.20
2018-09-27T02:24:15.570Z,12.20
2018-09-27T02:26:43.990Z,12.30
2018-09-27T02:29:13.202Z,12.40
2018-09-27T02:31:41.640Z,12.50
2018-09-27T02:34:11.323Z,12.60
2018-09-27T02:36:39.910Z,12.60
2018-09-27T02:39:09.975Z,12.60
2018-09-27T02:41:39.039Z,12.60
2018-09-27T02:44:07.544Z,12.60
2018-09-27T02:46:37.166Z,12.70
2018-09-27T02:49:05.710Z,12.70
2018-09-27T02:51:35.188Z,12.80
2018-09-27T02:54:03.748Z,12.90
2018-09-27T02:56:32.168Z,13.00
2018-09-27T02:59:00.547Z,13.10
2018-09-27T03:01:30.139Z,13.10
2018-09-27T03:03:58.602Z,13.20
2018-09-27T03:06:27.153Z,13.20
2018-09-27T03:08:56.281Z,13.20
2018-09-27T03:11:24.746Z,13.30
2018-09-27T03:13:53.231Z,13.30
2018-09-27T03:16:21.724Z,13.40
2018-09-27T03:18:50.209Z,13.40
2018-09-27T03:21:18.750Z,13.40
2018-09-27T03:23:47.194Z,13.50
2018-09-27T03:26:16.223Z,13.50
2018-09-27T03:28:44.740Z,13.60
2018-09-27T03:31:13.106Z,13.60
2018-09-27T03:33:42.247Z,13.60
2018-09-27T03:36:10.721Z,13.70
2018-09-27T03:38:39.145Z,13.70
2018-09-27T03:41:08.409Z,13.70
2018-09-27T03:43:36.868Z,13.70
2018-09-27T03:46:05.264Z,13.80
2018-09-27T03:48:33.755Z,13.80
2018-09-27T03:51:02.202Z,13.80
2018-09-27T03:53:30.742Z,13.80
2018-09-27T03:55:59.128Z,13.80
2018-09-27T03:58:27.518Z,13.80
2018-09-27T04:00:55.993Z,13.80
2018-09-27T04:03:24.495Z,13.80
2018-09-27T04:05:52.823Z,13.90
2018-09-27T04:08:21.232Z,13.90
2018-09-27T04:10:49.911Z,13.90
2018-09-27T04:13:18.318Z,13.90
2018-09-27T04:15:46.826Z,13.90
2018-09-27T04:18:15.199Z,13.90
2018-09-27T04:20:52.114Z,14.00
2018-09-27T04:23:22.242Z,13.90
2018-09-27T04:25:51.522Z,13.90
2018-09-27T04:28:20.525Z,13.90
2018-09-27T04:30:49.196Z,14.00
2018-09-27T04:33:18.091Z,13.90
2018-09-27T04:35:47.218Z,14.00
2018-09-27T04:38:15.851Z,14.00
2018-09-27T04:40:44.713Z,14.10
2018-09-27T04:43:14.368Z,14.10
2018-09-27T04:45:42.896Z,14.10
2018-09-27T04:48:11.414Z,14.10
2018-09-27T04:50:40.267Z,14.10
2018-09-27T04:53:08.788Z,14.10
2018-09-27T04:55:37.865Z,14.20
2018-09-27T04:58:06.350Z,14.20
2018-09-27T05:00:35.362Z,14.20
2018-09-27T05:03:03.784Z,14.20
2018-09-27T05:05:32.325Z,14.20
2018-09-27T05:08:00.757Z,14.30
2018-09-27T05:10:29.151Z,14.20
2018-09-27T05:12:57.562Z,14.20
2018-09-27T05:15:26.048Z,14.20
2018-09-27T05:17:54.500Z,14.30
2018-09-27T05:20:22.893Z,14.30
2018-09-27T05:22:51.336Z,14.30
2018-09-27T05:25:19.815Z,14.20
2018-09-27T05:27:48.380Z,14.30
2018-09-27T05:30:17.035Z,14.30
2018-09-27T05:32:45.542Z,14.30
2018-09-27T05:35:15.348Z,14.30
2018-09-27T05:37:46.865Z,14.20
2018-09-27T05:40:29.101Z,14.20
2018-09-27T05:42:58.384Z,14.30
2018-09-27T05:45:26.937Z,14.30
2018-09-27T05:47:57.532Z,14.30
2018-09-27T05:50:25.929Z,14.30
2018-09-27T05:52:54.575Z,14.40
2018-09-27T05:55:23.139Z,14.40
2018-09-27T05:57:52.240Z,14.30
2018-09-27T06:00:20.866Z,14.40
2018-09-27T06:02:50.018Z,14.40
2018-09-27T06:05:18.506Z,14.40
2018-09-27T06:07:46.916Z,14.40
2018-09-27T06:10:15.461Z,14.50
2018-09-27T06:12:44.646Z,14.60
2018-09-27T06:15:13.979Z,14.60
2018-09-27T06:17:42.610Z,14.60
2018-09-27T06:20:11.095Z,14.70
2018-09-27T06:22:39.716Z,14.70
2018-09-27T06:25:08.187Z,14.70
2018-09-27T06:27:36.634Z,14.70
2018-09-27T06:30:05.684Z,14.80
2018-09-27T06:32:34.196Z,14.90
2018-09-27T06:35:03.048Z,14.90
2018-09-27T06:37:32.872Z,15.00
2018-09-27T06:40:01.547Z,15.00
2018-09-27T06:42:30.521Z,15.00
2018-09-27T06:47:32.715Z,15.30
2018-09-27T06:50:01.291Z,15.40
2018-09-27T06:52:30.460Z,15.40
2018-09-27T06:54:59.275Z,15.40
2018-09-27T06:57:28.364Z,15.30
2018-09-27T06:59:56.983Z,15.40
2018-09-27T07:02:25.673Z,15.40
2018-09-27T07:04:54.178Z,15.40
2018-09-27T07:07:22.752Z,15.40
2018-09-27T07:09:52.179Z,15.30
2018-09-27T07:12:21.853Z,15.30
2018-09-27T07:14:50.917Z,15.40
2018-09-27T07:17:19.642Z,15.30
2018-09-27T07:19:48.138Z,15.20
2018-09-27T07:22:17.881Z,15.10
2018-09-27T07:24:48.350Z,15.10
2018-09-27T07:27:18.282Z,15.10
2018-09-27T07:29:46.999Z,15.10
2018-09-27T07:32:16.100Z,15.20
2018-09-27T07:34:45.157Z,15.20
2018-09-27T07:37:15.187Z,15.30
2018-09-27T07:39:44.531Z,15.20
2018-09-27T07:42:13.013Z,15.30
2018-09-27T07:44:41.621Z,15.40
2018-09-27T07:47:10.759Z,15.40
2018-09-27T07:49:41.442Z,15.50
2018-09-27T07:52:10.108Z,15.50
2018-09-27T07:54:39.453Z,15.60
2018-09-27T07:57:09.678Z,15.60
2018-09-27T07:59:38.208Z,15.70
2018-09-27T08:02:06.668Z,15.80
2018-09-27T08:04:35.513Z,15.80
2018-09-27T08:07:03.987Z,15.90
2018-09-27T08:09:32.468Z,16.00
2018-09-27T08:12:01.092Z,16.10
2018-09-27T08:14:30.503Z,16.20
2018-09-27T08:16:59.165Z,16.20
2018-09-27T08:19:28.360Z,16.30
2018-09-27T08:21:56.938Z,16.30
2018-09-27T08:24:26.473Z,16.30
2018-09-27T08:26:56.413Z,16.40
2018-09-27T08:29:24.875Z,16.40
2018-09-27T08:31:53.447Z,16.40
2018-09-27T08:34:22.009Z,16.50
2018-09-27T08:36:50.575Z,16.50
2018-09-27T08:39:19.032Z,16.60
2018-09-27T08:41:47.544Z,16.60
2018-09-27T08:44:16.065Z,16.70
2018-09-27T08:46:44.600Z,16.80
2018-09-27T08:49:14.155Z,16.90
2018-09-27T08:51:43.042Z,16.90
2018-09-27T08:54:12.288Z,17.00
2018-09-27T08:56:40.846Z,17.00
2018-09-27T08:59:10.053Z,17.10
2018-09-27T09:01:39.288Z,17.20
2018-09-27T09:04:08.772Z,17.30
2018-09-27T09:06:37.270Z,17.40
2018-09-27T09:09:09.371Z,17.50
2018-09-27T09:11:37.945Z,17.60
2018-09-27T09:14:07.152Z,17.60
2018-09-27T09:16:36.569Z,17.70
2018-09-27T09:19:05.110Z,17.70
2018-09-27T09:21:33.743Z,17.70
2018-09-27T09:24:02.894Z,17.80
2018-09-27T09:26:31.690Z,17.90
2018-09-27T09:29:00.202Z,17.90
2018-09-27T09:31:28.998Z,17.90
2018-09-27T09:33:57.556Z,17.90
2018-09-27T09:36:26.760Z,18.00
2018-09-27T09:38:55.388Z,18.10
2018-09-27T09:41:27.741Z,18.20
2018-09-27T09:43:56.244Z,18.20
2018-09-27T09:46:24.794Z,18.30
2018-09-27T09:48:53.367Z,18.30
2018-09-27T09:51:21.863Z,18.40
2018-09-27T09:53:50.395Z,18.40
2018-09-27T09:56:19.015Z,18.50
2018-09-27T09:58:47.582Z,18.60
2018-09-27T10:01:16.164Z,18.70
2018-09-27T10:03:44.690Z,18.70
2018-09-27T10:06:13.298Z,18.80
2018-09-27T10:08:41.808Z,18.80
2018-09-27T10:11:10.387Z,18.80
2018-09-27T10:13:38.957Z,18.90
2018-09-27T10:16:07.418Z,18.90
2018-09-27T10:18:36.067Z,19.00
2018-09-27T10:21:04.684Z,19.00
2018-09-27T10:23:33.197Z,19.10
2018-09-27T10:26:01.671Z,19.20
2018-09-27T10:28:30.647Z,19.20
2018-09-27T10:30:59.939Z,19.30
2018-09-27T10:33:28.459Z,19.30
2018-09-27T10:35:57.037Z,19.30
2018-09-27T10:38:25.896Z,19.30
2018-09-27T10:40:54.567Z,19.40
2018-09-27T10:43:23.739Z,19.40
2018-09-27T10:45:52.290Z,19.50
2018-09-27T10:48:20.959Z,19.50
2018-09-27T10:50:52.090Z,19.60
2018-09-27T10:53:21.936Z,19.60
2018-09-27T10:55:50.605Z,19.70
2018-09-27T10:58:19.626Z,19.70
2018-09-27T11:00:48.754Z,19.70
2018-09-27T11:03:17.358Z,19.70
2018-09-27T11:05:45.991Z,19.70
2018-09-27T11:08:15.305Z,19.80
2018-09-27T11:10:44.062Z,19.80
2018-09-27T11:13:12.679Z,19.80
2018-09-27T11:15:41.212Z,19.80
2018-09-27T11:18:09.802Z,19.80
2018-09-27T11:20:39.281Z,19.80
2018-09-27T11:23:08.209Z,19.90
2018-09-27T11:25:36.788Z,19.90
2018-09-27T11:28:05.293Z,20.00
2018-09-27T11:30:36.255Z,20.00
2018-09-27T11:33:04.889Z,20.10
2018-09-27T11:35:33.352Z,20.20
2018-09-27T11:38:01.946Z,20.20
2018-09-27T11:40:30.462Z,20.30
2018-09-27T11:42:59.329Z,20.30
2018-09-27T11:45:27.967Z,20.30
2018-09-27T11:47:56.441Z,20.40
2018-09-27T11:50:25.632Z,20.40
2018-09-27T11:52:54.122Z,20.40
2018-09-27T11:55:22.641Z,20.40
2018-09-27T11:57:53.090Z,20.50
2018-09-27T12:00:23.225Z,20.50
2018-09-27T12:02:52.834Z,20.50
2018-09-27T12:05:21.552Z,20.60
2018-09-27T12:07:50.121Z,20.70
2018-09-27T12:10:18.841Z,20.70
2018-09-27T12:12:47.334Z,20.80
2018-09-27T12:15:16.451Z,20.80
2018-09-27T12:17:45.137Z,20.80
2018-09-27T12:20:13.614Z,20.90
2018-09-27T12:22:42.198Z,20.90
2018-09-27T12:25:10.699Z,20.90
2018-09-27T12:27:39.167Z,20.90
2018-09-27T12:30:07.590Z,21.00
2018-09-27T12:32:36.727Z,21.00
2018-09-27T12:35:05.259Z,21.00
2018-09-27T12:37:33.783Z,21.00
2018-09-27T12:40:02.323Z,21.00
2018-09-27T12:42:30.903Z,21.10
2018-09-27T12:45:00.074Z,21.10
2018-09-27T12:47:28.623Z,21.20
2018-09-27T12:49:57.768Z,21.20
2018-09-27T12:52:26.384Z,21.20
2018-09-27T12:54:55.494Z,21.30
2018-09-27T12:57:24.778Z,21.30
2018-09-27T12:59:53.231Z,21.30
2018-09-27T13:02:21.904Z,21.30
2018-09-27T13:04:51.577Z,21.30
2018-09-27T13:07:20.751Z,21.40
2018-09-27T13:09:49.730Z,21.40
2018-09-27T13:12:18.287Z,21.30
2018-09-27T13:14:52.648Z,21.40
2018-09-27T13:17:21.239Z,21.40
2018-09-27T13:19:49.688Z,21.40
2018-09-27T13:22:18.225Z,21.50
2018-09-27T13:24:46.919Z,21.50
2018-09-27T13:27:15.626Z,21.50
2018-09-27T13:29:44.376Z,21.50
2018-09-27T13:32:13.023Z,21.50
2018-09-27T13:34:41.807Z,21.50
2018-09-27T13:37:11.621Z,21.50
2018-09-27T13:39:40.557Z,21.50
2018-09-27T13:42:09.031Z,21.50
2018-09-27T13:44:37.704Z,21.50
2018-09-27T13:47:07.113Z,21.50
2018-09-27T13:49:35.594Z,21.50
2018-09-27T13:52:04.018Z,21.50
2018-09-27T13:54:32.982Z,21.50
2018-09-27T13:57:02.238Z,21.40
2018-09-27T13:59:31.888Z,21.40
2018-09-27T14:02:00.948Z,21.40
2018-09-27T14:04:29.740Z,21.40
2018-09-27T14:06:58.265Z,21.40
2018-09-27T14:09:26.926Z,21.40
2018-09-27T14:11:56.651Z,21.40
2018-09-27T14:14:25.198Z,21.40
2018-09-27T14:16:53.697Z,21.40
2018-09-27T14:19:22.186Z,21.40
2018-09-27T14:21:51.499Z,21.40
2018-09-27T14:24:20.219Z,21.40
2018-09-27T14:26:48.811Z,21.40
2018-09-27T14:29:17.953Z,21.30
2018-09-27T14:31:46.979Z,21.30
2018-09-27T14:34:15.541Z,21.30
2018-09-27T14:36:44.152Z,21.30
2018-09-27T14:39:12.631Z,21.40
2018-09-27T14:41:41.505Z,21.40
2018-09-27T14:44:10.695Z,21.40
2018-09-27T14:46:40.218Z,21.40
2018-09-27T14:49:09.152Z,21.40
2018-09-27T14:51:38.355Z,21.30
2018-09-27T14:54:07.065Z,21.30
2018-09-27T14:56:35.857Z,21.30
2018-09-27T14:59:04.289Z,21.30
2018-09-27T15:01:32.764Z,21.30
2018-09-27T15:04:01.196Z,21.20
2018-09-27T15:06:30.657Z,21.20
2018-09-27T15:08:59.205Z,21.20
2018-09-27T15:11:27.813Z,21.20
2018-09-27T15:13:56.333Z,21.20
2018-09-27T15:16:24.814Z,21.20
2018-09-27T15:18:53.358Z,21.10
2018-09-27T15:21:21.928Z,21.10
2018-09-27T15:23:50.463Z,21.00
2018-09-27T15:26:19.522Z,20.90
2018-09-27T15:28:48.004Z,20.90
2018-09-27T15:31:16.531Z,20.90
2018-09-27T15:33:44.994Z,20.90
2018-09-27T15:36:14.068Z,20.80
2018-09-27T15:38:43.428Z,20.80
2018-09-27T15:41:11.877Z,20.70
2018-09-27T15:43:40.392Z,20.70
2018-09-27T15:46:08.894Z,20.70
2018-09-27T15:48:38.192Z,20.60
2018-09-27T15:51:06.750Z,20.60
2018-09-27T15:53:35.228Z,20.50
2018-09-27T15:56:04.855Z,20.50
2018-09-27T15:58:33.367Z,20.50
2018-09-27T16:01:02.571Z,20.40
2018-09-27T16:03:31.475Z,20.20
2018-09-27T16:05:59.959Z,20.10
2018-09-27T16:08:29.008Z,20.00
2018-09-27T16:10:57.480Z,19.90
2018-09-27T16:13:25.939Z,19.80
2018-09-27T16:15:54.486Z,19.80
2018-09-27T16:18:22.957Z,19.70
2018-09-27T16:20:51.437Z,19.60
2018-09-27T16:23:20.100Z,19.50
2018-09-27T16:25:48.546Z,19.40
2018-09-27T16:28:17.227Z,19.20
2018-09-27T16:30:45.707Z,19.10
2018-09-27T16:33:14.195Z,18.90
2018-09-27T16:35:42.739Z,18.70
2018-09-27T16:38:11.333Z,18.60
2018-09-27T16:40:39.809Z,18.40
2018-09-27T16:43:09.514Z,18.30
2018-09-27T16:45:38.129Z,18.10
2018-09-27T16:48:06.652Z,17.90
2018-09-27T16:50:35.249Z,17.70
2018-09-27T16:53:03.737Z,17.50
2018-09-27T16:55:32.923Z,17.30
2018-09-27T16:58:02.085Z,17.00
2018-09-27T17:00:30.561Z,16.80
2018-09-27T17:02:59.310Z,16.60
2018-09-27T17:05:27.874Z,16.50
2018-09-27T17:07:56.385Z,16.30
2018-09-27T17:10:24.858Z,16.10
2018-09-27T17:12:54.377Z,15.80
2018-09-27T17:15:23.391Z,15.70
2018-09-27T17:17:51.865Z,15.50
2018-09-27T17:20:20.530Z,15.40
2018-09-27T17:22:49.816Z,15.20
2018-09-27T17:25:18.375Z,15.00
2018-09-27T17:27:46.849Z,14.80
2018-09-27T17:30:16.350Z,14.60
2018-09-27T17:32:45.331Z,14.50
2018-09-27T17:35:13.900Z,14.30
2018-09-27T17:37:43.260Z,14.20
2018-09-27T17:40:12.826Z,14.10
2018-09-27T17:42:42.111Z,14.00
2018-09-27T17:45:11.388Z,13.80
2018-09-27T17:47:39.920Z,13.70
2018-09-27T17:50:08.623Z,13.50
2018-09-27T17:52:37.093Z,13.40
2018-09-27T17:55:06.118Z,13.40
2018-09-27T17:57:35.385Z,13.30
2018-09-27T18:00:03.957Z,13.20
2018-09-27T18:02:32.426Z,13.10
2018-09-27T18:05:01.048Z,13.00
2018-09-27T18:07:30.326Z,12.90
2018-09-27T18:09:58.889Z,12.90
2018-09-27T18:12:27.459Z,12.80
2018-09-27T18:14:57.377Z,12.70
2018-09-27T18:17:26.940Z,12.70
2018-09-27T18:19:56.169Z,12.70
2018-09-27T18:22:25.233Z,12.60
2018-09-27T18:24:53.672Z,12.50
2018-09-27T18:27:22.216Z,12.50
2018-09-27T18:29:50.680Z,12.40
2018-09-27T18:32:20.067Z,12.30
2018-09-27T18:34:48.582Z,12.30
2018-09-27T18:37:17.927Z,12.20
2018-09-27T18:39:46.512Z,12.10
2018-09-27T18:42:15.245Z,12.10
2018-09-27T18:44:44.854Z,12.00
2018-09-27T18:47:13.355Z,12.00
2018-09-27T18:49:42.306Z,12.00
2018-09-27T18:52:10.765Z,11.90
2018-09-27T18:54:39.407Z,11.90
2018-09-27T18:57:07.872Z,11.90
2018-09-27T18:59:36.451Z,11.80
2018-09-27T19:02:05.442Z,11.80
2018-09-27T19:04:34.718Z,11.70
2018-09-27T19:07:03.280Z,11.70
2018-09-27T19:09:32.527Z,11.70
2018-09-27T19:12:01.020Z,11.70
2018-09-27T19:14:29.689Z,11.70
2018-09-27T19:16:58.344Z,11.60
2018-09-27T19:19:26.674Z,11.60
2018-09-27T19:21:55.963Z,11.60
2018-09-27T19:24:25.080Z,11.60
2018-09-27T19:26:54.492Z,11.60
2018-09-27T19:29:22.930Z,11.60
2018-09-27T19:31:51.705Z,11.50
2018-09-27T19:34:20.204Z,11.50
2018-09-27T19:36:48.673Z,11.50
2018-09-27T19:39:17.518Z,11.40
2018-09-27T19:41:46.016Z,11.40
2018-09-27T19:44:14.579Z,11.30
2018-09-27T19:46:43.090Z,11.30
2018-09-27T19:49:12.257Z,11.20
2018-09-27T19:51:40.863Z,11.20
2018-09-27T19:54:09.348Z,11.10
2018-09-27T19:56:38.444Z,11.10
2018-09-27T19:59:07.204Z,11.10
2018-09-27T20:01:35.708Z,11.10
2018-09-27T20:04:04.279Z,11.00
2018-09-27T20:06:32.801Z,11.00
2018-09-27T20:09:02.461Z,11.00
2018-09-27T20:11:30.932Z,10.90
2018-09-27T20:13:59.567Z,10.90
2018-09-27T20:16:28.051Z,10.80
2018-09-27T20:18:56.688Z,10.80
2018-09-27T20:21:26.362Z,10.80
2018-09-27T20:23:54.847Z,10.70
2018-09-27T20:26:23.468Z,10.60
2018-09-27T20:28:51.957Z,10.60
2018-09-27T20:31:21.193Z,10.60
2018-09-27T20:33:49.756Z,10.60
2018-09-27T20:36:18.519Z,10.60
2018-09-27T20:38:47.547Z,10.60
2018-09-27T20:41:16.985Z,10.50
2018-09-27T20:43:45.557Z,10.50
2018-09-27T20:46:14.091Z,10.50
2018-09-27T20:48:43.851Z,10.40
2018-09-27T20:51:12.691Z,10.40
2018-09-27T20:53:41.214Z,10.40
2018-09-27T20:56:11.027Z,10.40
2018-09-27T20:58:39.496Z,10.30
2018-09-27T21:01:08.221Z,10.30
2018-09-27T21:03:37.654Z,10.20
2018-09-27T21:06:06.320Z,10.20
2018-09-27T21:08:35.056Z,10.10
2018-09-27T21:11:03.651Z,10.10
2018-09-27T21:13:32.803Z,10.10
2018-09-27T21:16:01.245Z,10.10
2018-09-27T21:18:30.496Z,10.00
2018-09-27T21:20:59.760Z,10.00
2018-09-27T21:23:28.819Z,10.00
2018-09-27T21:25:57.269Z,9.90
2018-09-27T21:28:25.767Z,9.90
2018-09-27T21:30:54.999Z,10.00
2018-09-27T21:33:23.888Z,10.10
2018-09-27T21:35:53.181Z,10.10
2018-09-27T21:38:22.159Z,10.10
2018-09-27T21:40:50.644Z,10.00
2018-09-27T21:43:19.236Z,9.90
2018-09-27T21:45:48.055Z,9.90
2018-09-27T21:48:16.466Z,9.90
2018-09-27T21:50:45.629Z,10.00
2018-09-27T21:53:14.362Z,10.00
2018-09-27T21:55:43.102Z,9.90
2018-09-27T21:58:11.734Z,9.90
2018-09-27T22:00:41.877Z,9.80
2018-09-27T22:03:10.683Z,9.80
2018-09-27T22:05:40.065Z,9.70
2018-09-27T22:08:08.652Z,9.70
2018-09-27T22:10:38.087Z,9.70
2018-09-27T22:13:06.849Z,9.60
2018-09-27T22:15:35.577Z,9.60
2018-09-27T22:18:04.855Z,9.50
2018-09-27T22:20:34.311Z,9.50
2018-09-27T22:23:03.053Z,9.50
2018-09-27T22:25:32.437Z,9.60
2018-09-27T22:28:02.089Z,9.50
2018-09-27T22:30:30.710Z,9.50
2018-09-27T22:33:00.132Z,9.40
2018-09-27T22:35:28.856Z,9.40
2018-09-27T22:37:58.688Z,9.30
2018-09-27T22:40:27.266Z,9.30
2018-09-27T22:42:56.415Z,9.20
2018-09-27T22:45:25.706Z,9.30
2018-09-27T22:47:55.233Z,9.30
2018-09-27T22:50:24.502Z,9.20
2018-09-27T22:52:53.083Z,9.20
2018-09-27T22:55:22.004Z,9.20
2018-09-27T22:57:50.618Z,9.20
2018-09-27T23:00:19.785Z,9.10
2018-09-27T23:02:48.413Z,9.10
2018-09-27T23:05:17.080Z,9.00
2018-09-27T23:07:46.612Z,9.00
2018-09-27T23:10:15.888Z,9.00
2018-09-27T23:12:44.500Z,8.90
2018-09-27T23:15:13.120Z,8.90
2018-09-27T23:17:41.805Z,8.90
2018-09-27T23:20:11.838Z,8.90
2018-09-27T23:22:41.106Z,8.90
2018-09-27T23:25:10.340Z,8.80
2018-09-27T23:27:39.086Z,8.80
2018-09-27T23:30:08.689Z,8.80
2018-09-27T23:32:39.167Z,8.80
2018-09-27T23:35:07.939Z,8.80
2018-09-27T23:37:37.275Z,8.70
2018-09-27T23:40:06.552Z,8.70
2018-09-27T23:42:36.366Z,8.70
2018-09-27T23:45:05.128Z,8.70
2018-09-27T23:47:33.831Z,8.80
2018-09-27T23:50:02.452Z,8.70
2018-09-27T23:52:31.468Z,8.70
2018-09-27T23:55:01.475Z,8.70
2018-09-27T23:57:30.063Z,8.70
2018-09-27T23:59:59.484Z,8.60
